Time;durP1;ratioP1;P1;durP2;ratioP2;P2;SDS_P1;SDS_P2;PMS_P1;PMS_P2;Temp;Humidity;BMP_temperature;BMP_pressure;BME280_temperature;BME280_humidity;BME280_pressure;Samples;Min_cycle;Max_cycle;Signal;HPM_P1;HPM_P2
2021/06/24 00:02:27;;;;;;;3.90;1.75;;;;;;;10.84;80.79;102369.16;5043221;28;20045;-60
2021/06/24 00:04:55;;;;;;;4.68;1.92;;;;;;;10.85;80.91;102365.25;5044891;28;20075;-57
2021/06/24 00:07:23;;;;;;;3.15;1.70;;;;;;;10.84;80.89;102363.56;5042370;28;20493;-58
2021/06/24 00:09:51;;;;;;;4.28;2.05;;;;;;;10.86;81.11;102363.31;5023655;28;20533;-53
2021/06/24 00:12:21;;;;;;;4.07;1.85;;;;;;;10.86;81.10;102366.09;5041166;28;20045;-61
2021/06/24 00:14:49;;;;;;;4.53;1.92;;;;;;;10.88;81.24;102366.69;5042613;28;20077;-57
2021/06/24 00:17:18;;;;;;;5.20;1.95;;;;;;;10.90;81.19;102364.47;5040073;28;20076;-60
2021/06/24 00:19:48;;;;;;;3.92;1.55;;;;;;;10.91;81.25;102355.81;5026900;28;20460;-56
2021/06/24 00:22:16;;;;;;;2.90;1.67;;;;;;;10.92;81.40;102359.47;5038421;28;20081;-59
2021/06/24 00:24:43;;;;;;;3.58;2.20;;;;;;;10.93;81.38;102364.78;5033005;28;20068;-56
2021/06/24 00:27:11;;;;;;;3.15;2.10;;;;;;;10.94;81.39;102365.63;5054242;28;20064;-55
2021/06/24 00:29:39;;;;;;;2.50;1.80;;;;;;;10.97;81.43;102365.09;5040716;28;20041;-59
2021/06/24 00:32:08;;;;;;;3.72;1.60;;;;;;;10.99;81.59;102368.47;5048547;28;20079;-58
2021/06/24 00:34:37;;;;;;;4.75;2.13;;;;;;;11.01;81.58;102372.66;5040906;28;20119;-58
2021/06/24 00:37:05;;;;;;;3.25;2.10;;;;;;;11.05;81.78;102364.59;5048409;28;20547;-56
2021/06/24 00:39:33;;;;;;;3.53;1.70;;;;;;;11.06;81.65;102369.06;5040990;28;20471;-54
2021/06/24 00:42:01;;;;;;;2.80;1.27;;;;;;;11.09;81.77;102368.56;5047486;28;20044;-53
2021/06/24 00:44:29;;;;;;;2.47;1.45;;;;;;;11.11;81.84;102360.75;5042703;28;20411;-54
2021/06/24 00:46:57;;;;;;;4.65;2.10;;;;;;;11.12;81.84;102362.44;5046932;28;20045;-56
2021/06/24 00:49:25;;;;;;;3.63;2.13;;;;;;;11.11;81.83;102366.34;5043978;28;20053;-58
2021/06/24 00:51:56;;;;;;;3.60;2.00;;;;;;;11.09;81.80;102359.31;5027875;28;20046;-57
2021/06/24 00:54:25;;;;;;;3.92;2.20;;;;;;;11.06;81.74;102355.09;5030944;28;20048;-53
2021/06/24 00:56:53;;;;;;;3.55;2.00;;;;;;;11.05;81.94;102365.44;5026866;28;20075;-56
2021/06/24 00:59:22;;;;;;;3.00;1.77;;;;;;;11.03;82.06;102364.84;5026945;28;20520;-55
2021/06/24 01:01:50;;;;;;;3.53;2.00;;;;;;;11.01;82.07;102372.66;5046388;28;20037;-52
2021/06/24 01:04:22;;;;;;;6.05;2.28;;;;;;;11.00;82.19;102367.34;5044316;28;20057;-54
2021/06/24 01:06:53;;;;;;;3.97;1.90;;;;;;;10.99;82.10;102358.13;5022411;28;20127;-51
2021/06/24 01:09:25;;;;;;;3.78;2.20;;;;;;;10.98;82.24;102356.47;5043446;28;20084;-57
2021/06/24 01:11:54;;;;;;;4.75;1.75;;;;;;;10.99;82.34;102365.69;5027132;28;20045;-54
2021/06/24 01:14:24;;;;;;;3.28;2.15;;;;;;;10.99;82.40;102366.50;5045064;28;20041;-59
2021/06/24 01:16:54;;;;;;;5.38;2.05;;;;;;;10.99;82.44;102351.72;5043172;28;20080;-57
2021/06/24 01:19:22;;;;;;;3.78;2.40;;;;;;;10.98;82.54;102352.81;5046189;28;20498;-52
2021/06/24 01:21:51;;;;;;;5.88;2.45;;;;;;;10.97;82.56;102363.16;5042093;28;20077;-61
2021/06/24 01:24:21;;;;;;;3.70;2.30;;;;;;;10.95;82.37;102358.94;5046948;28;20049;-59
2021/06/24 01:26:50;;;;;;;2.72;1.83;;;;;;;10.92;82.79;102362.25;5032373;28;20087;-56
2021/06/24 01:29:18;;;;;;;2.40;1.35;;;;;;;10.91;82.72;102366.16;5047367;28;20090;-58
2021/06/24 01:31:46;;;;;;;2.90;1.45;;;;;;;10.90;82.82;102359.72;5021603;28;20045;-53
2021/06/24 01:34:14;;;;;;;3.10;1.90;;;;;;;10.88;82.92;102355.50;5047388;28;20049;-61
2021/06/24 01:36:43;;;;;;;3.05;1.83;;;;;;;10.86;82.83;102350.19;5021972;28;20133;-54
2021/06/24 01:39:14;;;;;;;6.47;2.20;;;;;;;10.84;83.06;102355.19;5046578;28;20037;-60
2021/06/24 01:41:54;;;;;;;3.35;1.92;;;;;;;10.84;82.99;102351.56;5039658;28;20479;-56
2021/06/24 01:44:33;;;;;;;3.53;2.40;;;;;;;10.80;83.03;102358.75;5047101;28;20068;-55
2021/06/24 01:47:01;;;;;;;3.67;2.10;;;;;;;10.78;83.25;102361.00;5039503;28;20049;-57
2021/06/24 01:49:29;;;;;;;2.65;1.63;;;;;;;10.77;83.27;102359.31;5047018;28;20071;-57
2021/06/24 01:52:01;;;;;;;2.13;1.50;;;;;;;10.75;83.27;102356.78;5021650;28;20167;-55
2021/06/24 01:54:29;;;;;;;4.35;2.47;;;;;;;10.72;83.29;102357.31;5046689;28;20433;-57
2021/06/24 01:56:58;;;;;;;3.17;1.52;;;;;;;10.67;83.36;102355.31;5025651;28;20076;-57
2021/06/24 01:59:28;;;;;;;4.07;1.95;;;;;;;10.63;83.54;102356.94;5019311;28;20057;-56
2021/06/24 02:02:02;;;;;;;4.18;1.58;;;;;;;10.60;83.62;102365.81;5024900;28;20077;-54
2021/06/24 02:04:59;;;;;;;2.55;1.40;;;;;;;10.57;83.86;102363.59;5012011;28;20132;-62
2021/06/24 02:07:39;;;;;;;3.75;2.00;;;;;;;10.57;84.07;102365.53;5034182;28;20084;-56
2021/06/24 02:10:19;;;;;;;3.50;1.98;;;;;;;10.56;84.01;102359.09;5046793;28;20053;-58
2021/06/24 02:13:01;;;;;;;3.70;1.80;;;;;;;10.56;84.17;102364.69;5039347;28;20137;-58
2021/06/24 02:15:29;;;;;;;4.30;2.25;;;;;;;10.53;84.07;102356.84;5045987;28;20048;-57
2021/06/24 02:17:57;;;;;;;3.35;2.40;;;;;;;10.51;84.08;102361.84;5039153;28;20042;-56
2021/06/24 02:20:44;;;;;;;1.95;1.45;;;;;;;10.46;84.03;102361.75;5027647;28;20048;-56
2021/06/24 02:23:28;;;;;;;3.22;1.88;;;;;;;10.42;84.02;102355.00;5021361;28;20054;-57
2021/06/24 02:26:06;;;;;;;3.03;1.70;;;;;;;10.38;84.22;102350.25;5028636;28;20132;-61
2021/06/24 02:28:42;;;;;;;4.03;1.83;;;;;;;10.37;84.34;102348.56;5020937;28;20076;-55
2021/06/24 02:31:28;;;;;;;4.10;2.80;;;;;;;10.33;84.21;102348.22;5046338;28;20045;-57
2021/06/24 02:34:01;;;;;;;5.45;2.40;;;;;;;10.31;84.21;102350.44;5021091;28;20056;-58
2021/06/24 02:36:58;;;;;;;2.88;2.22;;;;;;;10.27;84.30;102357.63;5031923;28;20083;-56
2021/06/24 02:39:46;;;;;;;3.20;1.73;;;;;;;10.28;84.47;102362.13;5043232;28;20045;-58
2021/06/24 02:42:16;;;;;;;2.83;2.00;;;;;;;10.32;84.53;102358.56;5025105;28;20040;-56
2021/06/24 02:44:45;;;;;;;2.90;1.48;;;;;;;10.37;84.42;102348.56;5023823;28;20114;-53
2021/06/24 02:47:13;;;;;;;4.18;2.40;;;;;;;10.40;84.54;102357.22;5045192;28;20048;-58
2021/06/24 02:49:44;;;;;;;2.70;1.88;;;;;;;10.44;84.38;102350.03;5021925;28;20041;-60
2021/06/24 02:52:13;;;;;;;4.75;2.47;;;;;;;10.46;84.40;102350.59;5028014;28;20099;-56
2021/06/24 02:54:43;;;;;;;4.93;2.45;;;;;;;10.49;84.60;102341.72;5018976;28;20143;-58
2021/06/24 02:57:12;;;;;;;3.75;1.80;;;;;;;10.54;84.32;102340.94;5035426;28;20541;-60
2021/06/24 03:00:01;;;;;;;2.10;1.25;;;;;;;10.56;84.81;102333.13;5042728;28;20469;-55
2021/06/24 03:02:30;;;;;;;5.55;2.78;;;;;;;10.60;84.85;102343.50;5017517;28;20410;-57
2021/06/24 03:04:58;;;;;;;3.13;1.70;;;;;;;10.64;84.80;102332.66;5048046;28;20566;-56
2021/06/24 03:07:26;;;;;;;3.58;2.00;;;;;;;10.69;84.81;102324.31;5041298;28;20083;-59
2021/06/24 03:10:17;;;;;;;2.45;1.80;;;;;;;10.71;85.01;102313.75;5042890;28;20508;-54
2021/06/24 03:12:49;;;;;;;5.93;2.20;;;;;;;10.75;85.00;102314.06;5036020;28;20092;-57
2021/06/24 03:15:19;;;;;;;4.68;1.90;;;;;;;10.80;85.01;102322.47;5025161;28;20075;-57
2021/06/24 03:17:48;;;;;;;3.38;2.50;;;;;;;10.81;85.16;102315.78;5035315;28;20455;-59
2021/06/24 03:20:18;;;;;;;3.20;1.77;;;;;;;10.84;85.16;102310.50;5025167;28;20140;-60
2021/06/24 03:22:46;;;;;;;2.70;1.73;;;;;;;10.87;85.26;102306.34;5035586;28;20065;-59
2021/06/24 03:25:15;;;;;;;4.35;2.10;;;;;;;10.91;85.23;102315.88;5024150;28;20057;-55
2021/06/24 03:27:43;;;;;;;4.45;1.65;;;;;;;10.92;85.34;102318.41;5017765;28;20054;-56
2021/06/24 03:30:32;;;;;;;2.63;1.42;;;;;;;10.96;85.58;102319.56;5042320;28;20048;-55
2021/06/24 03:33:00;;;;;;;3.00;1.63;;;;;;;10.99;85.45;102315.41;5018394;28;20045;-59
2021/06/24 03:35:30;;;;;;;3.50;1.30;;;;;;;11.04;85.39;102319.06;5047267;28;20041;-59
2021/06/24 03:37:59;;;;;;;1.92;1.40;;;;;;;11.09;85.52;102323.84;5038799;28;20525;-60
2021/06/24 03:40:28;;;;;;;3.72;1.65;;;;;;;11.15;85.50;102316.38;5046483;28;20075;-58
2021/06/24 03:43:02;;;;;;;2.80;1.40;;;;;;;11.19;85.58;102311.94;5021736;28;20128;-56
2021/06/24 03:45:32;;;;;;;3.67;1.60;;;;;;;11.24;85.79;102306.34;5045106;28;20046;-58
2021/06/24 03:48:00;;;;;;;3.03;1.80;;;;;;;11.28;85.66;102299.97;5040662;28;20502;-59
2021/06/24 03:50:29;;;;;;;2.03;1.27;;;;;;;11.32;85.60;102317.03;5025721;28;20536;-60
2021/06/24 03:52:57;;;;;;;2.10;1.13;;;;;;;11.36;85.60;102309.81;5041135;28;20536;-57
2021/06/24 03:55:36;;;;;;;3.90;1.70;;;;;;;11.40;85.56;102317.38;5035491;28;20065;-58
2021/06/24 03:58:18;;;;;;;;;;;;;;;11.36;85.63;102309.81;5030267;28;20046;-56
2021/06/24 04:00:48;;;;;;;3.05;1.33;;;;;;;11.41;85.99;102315.41;5045027;28;20398;-57
2021/06/24 04:03:17;;;;;;;2.78;1.20;;;;;;;11.50;85.62;102311.00;5025834;28;20038;-56
2021/06/24 04:05:54;;;;;;;3.75;1.58;;;;;;;11.56;85.49;102306.31;5042472;28;20089;-59
2021/06/24 04:08:23;;;;;;;4.72;1.60;;;;;;;11.63;85.44;102312.47;5043174;28;20033;-57
2021/06/24 04:11:05;;;;;;;3.08;1.83;;;;;;;11.66;85.33;102318.38;5033026;28;20036;-59
2021/06/24 04:13:38;;;;;;;3.95;1.80;;;;;;;11.71;85.39;102314.78;5046052;28;20045;-55
2021/06/24 04:16:26;;;;;;;2.22;1.55;;;;;;;11.74;85.40;102308.66;5026092;28;20636;-54
2021/06/24 04:18:56;;;;;;;2.67;1.20;;;;;;;11.79;85.25;102300.28;5046732;28;20030;-55
2021/06/24 04:21:24;;;;;;;2.70;1.45;;;;;;;11.84;85.20;102303.13;5044542;28;20069;-59
2021/06/24 04:23:52;;;;;;;1.77;1.10;;;;;;;11.88;85.17;102301.47;5042555;28;20041;-57
2021/06/24 04:26:22;;;;;;;2.72;1.30;;;;;;;11.92;85.06;102299.81;5045027;28;20055;-60
2021/06/24 04:28:51;;;;;;;4.60;1.30;;;;;;;11.97;85.01;102299.84;5038984;28;20056;-54
2021/06/24 04:31:19;;;;;;;2.33;1.40;;;;;;;12.00;84.92;102299.25;5024811;28;20148;-55
2021/06/24 04:33:49;;;;;;;2.13;1.10;;;;;;;12.05;85.00;102302.09;5040316;28;20057;-59
2021/06/24 04:36:22;;;;;;;2.15;1.20;;;;;;;12.10;84.91;102294.84;5041070;28;20514;-57
2021/06/24 04:38:58;;;;;;;2.30;1.40;;;;;;;12.14;84.94;102295.97;5046046;28;20052;-55
2021/06/24 04:41:26;;;;;;;2.58;1.40;;;;;;;12.20;84.92;102294.84;5040052;28;20116;-57
2021/06/24 04:44:07;;;;;;;3.10;1.77;;;;;;;12.21;84.74;102297.38;5022172;28;20049;-59
2021/06/24 04:46:37;;;;;;;4.03;1.42;;;;;;;12.26;84.67;102296.56;5023065;28;20494;-57
2021/06/24 04:49:09;;;;;;;2.63;1.23;;;;;;;12.30;84.63;102306.94;5022360;28;20053;-59
2021/06/24 04:51:46;;;;;;;2.72;1.50;;;;;;;12.32;84.58;102299.09;5040525;28;20049;-59
2021/06/24 04:54:26;;;;;;;2.83;1.10;;;;;;;12.37;84.32;102298.28;5040749;28;20406;-54
2021/06/24 04:56:54;;;;;;;2.42;0.90;;;;;;;12.41;84.19;102302.19;5040629;28;20041;-58
2021/06/24 04:59:42;;;;;;;3.13;1.38;;;;;;;12.42;84.12;102301.06;5039924;28;20072;-57
2021/06/24 05:02:28;;;;;;;2.35;1.02;;;;;;;12.46;83.95;102292.97;5041551;28;20052;-53
2021/06/24 05:05:16;;;;;;;4.80;1.35;;;;;;;12.48;83.79;102291.56;5040866;28;20115;-54
2021/06/24 05:07:44;;;;;;;3.58;1.33;;;;;;;12.52;83.72;102292.72;5024076;28;20409;-57
2021/06/24 05:10:14;;;;;;;3.92;1.40;;;;;;;12.56;83.48;102288.25;5038160;28;20064;-51
2021/06/24 05:12:41;;;;;;;3.08;1.20;;;;;;;12.58;83.19;102279.56;5041651;28;20102;-57
2021/06/24 05:15:11;;;;;;;2.55;1.23;;;;;;;12.62;83.09;102281.50;5040026;28;20045;-57
2021/06/24 05:17:40;;;;;;;5.97;1.38;;;;;;;12.65;82.90;102282.91;5039340;28;20060;-52
2021/06/24 05:20:09;;;;;;;3.22;1.17;;;;;;;12.67;82.50;102284.31;5040372;28;20099;-52
2021/06/24 05:22:39;;;;;;;2.78;1.08;;;;;;;12.70;82.23;102278.16;5044508;28;20080;-56
2021/06/24 05:25:07;;;;;;;4.00;1.45;;;;;;;12.74;82.04;102282.09;5042672;28;20067;-57
2021/06/24 05:27:35;;;;;;;2.22;1.20;;;;;;;12.79;81.87;102286.03;5046111;28;20571;-54
2021/06/24 05:30:04;;;;;;;2.22;1.10;;;;;;;12.83;81.53;102278.72;5023143;28;20041;-60
2021/06/24 05:32:32;;;;;;;2.53;1.20;;;;;;;12.86;81.11;102286.56;5047018;28;20078;-57
2021/06/24 05:35:00;;;;;;;3.65;1.10;;;;;;;12.88;81.19;102284.34;5039953;28;20068;-55
2021/06/24 05:37:28;;;;;;;3.28;1.10;;;;;;;12.93;81.02;102284.34;5046234;28;20088;-61
2021/06/24 05:39:57;;;;;;;2.25;0.75;;;;;;;12.97;80.72;102283.50;5038770;28;20079;-56
2021/06/24 05:42:25;;;;;;;2.97;1.08;;;;;;;13.02;80.63;102277.88;5047174;28;20501;-54
2021/06/24 05:44:53;;;;;;;3.50;1.35;;;;;;;13.06;80.30;102280.97;5037861;28;20120;-55
2021/06/24 05:47:20;;;;;;;3.78;1.27;;;;;;;13.11;80.31;102278.16;5046711;28;20559;-55
2021/06/24 05:49:49;;;;;;;3.78;1.30;;;;;;;13.15;80.16;102272.84;5039621;28;20046;-57
2021/06/24 05:52:16;;;;;;;2.17;1.38;;;;;;;13.19;80.28;102279.59;5025715;28;20461;-60
2021/06/24 05:54:44;;;;;;;2.55;1.25;;;;;;;13.24;80.03;102276.78;5040518;28;20502;-57
2021/06/24 05:57:13;;;;;;;2.95;1.10;;;;;;;13.28;79.93;102278.72;5043772;28;20049;-53
2021/06/24 05:59:41;;;;;;;3.88;1.17;;;;;;;13.33;79.59;102273.13;5042900;28;20076;-58
2021/06/24 06:02:09;;;;;;;4.00;1.60;;;;;;;13.38;79.46;102277.88;5040822;28;20045;-57
2021/06/24 06:04:37;;;;;;;2.22;0.82;;;;;;;13.42;79.06;102273.38;5042597;28;20563;-54
2021/06/24 06:07:05;;;;;;;4.13;1.33;;;;;;;13.50;78.74;102271.97;5044772;28;20483;-56
2021/06/24 06:09:35;;;;;;;3.25;1.20;;;;;;;13.55;78.56;102270.00;5043054;28;20069;-59
2021/06/24 06:12:04;;;;;;;2.75;1.05;;;;;;;13.60;78.28;102269.13;5044388;28;20139;-56
2021/06/24 06:14:33;;;;;;;3.47;1.25;;;;;;;13.65;78.18;102271.91;5038972;28;20136;-54
2021/06/24 06:17:01;;;;;;;3.90;1.10;;;;;;;13.70;77.87;102271.91;5039173;28;20049;-56
2021/06/24 06:19:29;;;;;;;3.80;1.10;;;;;;;13.75;77.59;102266.28;5042486;28;20076;-56
2021/06/24 06:21:56;;;;;;;3.15;1.10;;;;;;;13.79;77.42;102262.59;5041552;28;20057;-58
2021/06/24 06:24:24;;;;;;;3.17;1.00;;;;;;;13.84;76.79;102261.75;5045609;28;20103;-59
2021/06/24 06:26:52;;;;;;;3.22;1.00;;;;;;;13.89;76.23;102260.88;5039168;28;20085;-57
2021/06/24 06:29:20;;;;;;;1.75;1.00;;;;;;;13.94;76.10;102266.47;5045870;28;20045;-57
2021/06/24 06:31:49;;;;;;;2.40;1.00;;;;;;;14.01;75.92;102262.22;5039050;28;20045;-58
2021/06/24 06:34:17;;;;;;;2.15;0.80;;;;;;;14.08;75.83;102259.94;5045432;28;20095;-55
2021/06/24 06:36:45;;;;;;;3.60;1.20;;;;;;;14.15;75.25;102251.22;5038946;28;20061;-55
2021/06/24 06:39:13;;;;;;;3.40;1.10;;;;;;;14.23;74.78;102263.78;5046175;28;20122;-55
2021/06/24 06:41:41;;;;;;;2.25;1.00;;;;;;;14.28;74.32;102244.09;5038486;28;20046;-57
2021/06/24 06:44:08;;;;;;;2.20;0.90;;;;;;;14.36;74.14;102243.50;5045707;28;20127;-59
2021/06/24 06:46:36;;;;;;;3.05;0.90;;;;;;;14.43;73.94;102244.03;5039088;28;20517;-53
2021/06/24 06:49:06;;;;;;;4.53;1.20;;;;;;;14.51;73.16;102251.84;5039100;28;20072;-59
2021/06/24 06:51:34;;;;;;;2.25;1.20;;;;;;;14.57;72.86;102250.69;5041226;28;20060;-58
2021/06/24 06:54:02;;;;;;;2.65;1.10;;;;;;;14.64;72.92;102245.56;5043489;28;20033;-58
2021/06/24 06:56:30;;;;;;;2.22;0.98;;;;;;;14.72;72.50;102244.94;5037576;28;20111;-57
2021/06/24 06:58:59;;;;;;;2.83;0.90;;;;;;;14.79;71.83;102245.44;5043798;28;20094;-60
2021/06/24 07:01:27;;;;;;;2.28;0.82;;;;;;;14.87;71.58;102254.38;5042197;28;20049;-56
2021/06/24 07:03:55;;;;;;;3.50;0.90;;;;;;;14.92;70.70;102249.56;5043797;28;20107;-52
2021/06/24 07:06:25;;;;;;;2.88;1.00;;;;;;;14.97;70.53;102254.31;5030022;28;20049;-55
2021/06/24 07:08:53;;;;;;;1.45;0.70;;;;;;;15.03;69.65;102261.53;5041845;28;20391;-54
2021/06/24 07:11:21;;;;;;;3.20;1.00;;;;;;;15.09;69.57;102261.19;5050290;28;20115;-59
2021/06/24 07:13:49;;;;;;;3.53;0.90;;;;;;;15.17;68.86;102265.34;5039426;28;20099;-57
2021/06/24 07:16:17;;;;;;;3.05;0.88;;;;;;;15.19;68.31;102263.06;5036932;28;20041;-56
2021/06/24 07:18:46;;;;;;;2.33;0.98;;;;;;;15.26;68.31;102257.09;5040654;28;20049;-58
2021/06/24 07:21:14;;;;;;;4.03;1.00;;;;;;;15.35;68.40;102258.16;5035884;28;20057;-55
2021/06/24 07:23:43;;;;;;;4.05;0.95;;;;;;;15.42;68.25;102259.44;5037598;28;20052;-55
2021/06/24 07:26:11;;;;;;;2.83;1.00;;;;;;;15.50;68.34;102256.00;5027569;28;20049;-55
2021/06/24 07:28:38;;;;;;;3.17;1.02;;;;;;;15.59;68.31;102261.81;5038049;28;20041;-61
2021/06/24 07:31:06;;;;;;;2.30;1.00;;;;;;;15.65;68.00;102263.44;5044191;28;20037;-54
2021/06/24 07:33:35;;;;;;;3.80;0.90;;;;;;;15.66;67.41;102253.88;5037778;28;20056;-57
2021/06/24 07:36:02;;;;;;;3.42;0.90;;;;;;;15.67;67.04;102261.19;5044808;28;20101;-57
2021/06/24 07:38:30;;;;;;;3.05;0.95;;;;;;;15.65;66.40;102254.16;5037549;28;20054;-58
2021/06/24 07:41:00;;;;;;;3.38;0.90;;;;;;;15.68;66.32;102257.22;5027041;28;20127;-55
2021/06/24 07:43:27;;;;;;;3.95;0.82;;;;;;;15.72;66.32;102260.28;5039782;28;20041;-58
2021/06/24 07:45:55;;;;;;;5.43;0.95;;;;;;;15.75;66.26;102265.31;5043414;28;20129;-53
2021/06/24 07:48:23;;;;;;;2.50;1.00;;;;;;;15.82;66.74;102265.78;5041075;28;20073;-54
2021/06/24 07:50:51;;;;;;;2.88;0.98;;;;;;;15.90;66.76;102267.94;5042126;28;20430;-57
2021/06/24 07:53:19;;;;;;;3.00;0.75;;;;;;;15.93;66.22;102267.34;5041922;28;20402;-54
2021/06/24 07:55:47;;;;;;;2.30;0.98;;;;;;;15.95;65.43;102269.84;5040436;28;20073;-55
2021/06/24 07:58:16;;;;;;;2.58;0.80;;;;;;;15.95;64.83;102264.22;5023243;28;20053;-57
2021/06/24 08:00:44;;;;;;;2.70;0.88;;;;;;;15.96;64.63;102269.56;5042766;28;20563;-54
2021/06/24 08:03:26;;;;;;;3.25;0.90;;;;;;;15.98;65.28;102272.06;5039155;28;20045;-57
2021/06/24 08:05:54;;;;;;;1.90;0.77;;;;;;;16.01;64.47;102268.63;5035221;28;20061;-55
2021/06/24 08:08:22;;;;;;;5.03;0.70;;;;;;;15.99;64.32;102266.09;5041924;28;20497;-57
2021/06/24 08:10:50;;;;;;;2.67;0.95;;;;;;;15.98;64.37;102264.47;5042747;28;20053;-57
2021/06/24 08:13:19;;;;;;;2.85;0.80;;;;;;;15.97;63.54;102257.16;5041908;28;20076;-55
2021/06/24 08:15:47;;;;;;;3.03;1.00;;;;;;;15.95;63.33;102259.44;5040929;28;20052;-59
2021/06/24 08:18:16;;;;;;;2.90;0.85;;;;;;;15.91;63.58;102249.91;5043648;28;20052;-59
2021/06/24 08:20:44;;;;;;;2.97;0.90;;;;;;;15.98;63.84;102252.38;5041413;28;20049;-56
2021/06/24 08:23:12;;;;;;;3.10;0.88;;;;;;;16.04;63.69;102254.78;5048434;28;20045;-56
2021/06/24 08:25:40;;;;;;;4.22;0.90;;;;;;;16.12;63.64;102256.09;5040982;28;20041;-56
2021/06/24 08:28:08;;;;;;;1.80;0.80;;;;;;;16.19;63.22;102257.38;5048030;28;20098;-57
2021/06/24 08:30:41;;;;;;;4.18;1.00;;;;;;;16.25;62.74;102252.53;5040881;28;20045;-54
2021/06/24 08:33:09;;;;;;;2.35;0.75;;;;;;;16.29;62.25;102256.41;5047688;28;20048;-57
2021/06/24 08:35:37;;;;;;;2.17;0.70;;;;;;;16.36;61.93;102250.41;5041011;28;20048;-57
2021/06/24 08:38:05;;;;;;;3.13;0.90;;;;;;;16.43;62.28;102248.88;5048286;28;20452;-56
2021/06/24 08:40:33;;;;;;;2.75;0.80;;;;;;;16.57;61.88;102248.97;5040541;28;20042;-57
2021/06/24 08:43:01;;;;;;;2.67;0.93;;;;;;;16.70;62.31;102251.03;5047901;28;20056;-54
2021/06/24 08:45:29;;;;;;;1.77;0.63;;;;;;;16.80;61.86;102250.00;5042755;28;20072;-61
2021/06/24 08:48:01;;;;;;;2.42;0.60;;;;;;;16.84;61.39;102249.09;5045667;28;20441;-57
2021/06/24 08:50:31;;;;;;;2.97;0.90;;;;;;;16.85;61.38;102256.41;5043961;28;20102;-58
2021/06/24 08:52:59;;;;;;;2.58;0.90;;;;;;;16.85;61.27;102250.75;5045634;28;20045;-58
2021/06/24 08:55:35;;;;;;;1.98;0.82;;;;;;;16.79;61.14;102251.97;5023210;28;20571;-58
2021/06/24 08:58:03;;;;;;;2.08;0.80;;;;;;;16.77;61.38;102259.94;5042550;28;20066;-58
2021/06/24 09:00:31;;;;;;;2.20;0.70;;;;;;;16.78;61.57;102255.97;5044301;28;20501;-55
2021/06/24 09:03:14;;;;;;;2.33;0.98;;;;;;;16.80;61.34;102256.47;5045642;28;20048;-57
2021/06/24 09:05:54;;;;;;;2.42;0.88;;;;;;;16.81;61.77;102258.16;5050896;28;20124;-60
2021/06/24 09:08:36;;;;;;;2.28;0.90;;;;;;;16.84;61.66;102260.38;5042031;28;20081;-58
2021/06/24 09:11:20;;;;;;;4.70;0.70;;;;;;;16.91;61.29;102253.50;5031480;28;20081;-56
2021/06/24 09:14:00;;;;;;;2.50;0.80;;;;;;;16.98;61.08;102253.97;5044929;28;20129;-57
2021/06/24 09:16:30;;;;;;;2.15;0.75;;;;;;;17.04;60.98;102258.34;5023500;28;20113;-57
2021/06/24 09:19:20;;;;;;;2.63;0.85;;;;;;;17.12;60.71;102263.28;5045806;28;20045;-59
2021/06/24 09:21:56;;;;;;;1.95;0.80;;;;;;;17.20;60.94;102252.09;5041005;28;20065;-55
2021/06/24 09:24:27;;;;;;;2.15;0.70;;;;;;;17.28;60.94;102255.38;5026755;28;20139;-58
2021/06/24 09:26:57;;;;;;;3.38;0.75;;;;;;;17.32;60.44;102251.63;5043709;28;20121;-58
2021/06/24 09:29:25;;;;;;;3.03;0.80;;;;;;;17.31;60.13;102251.94;5037775;28;20079;-60
2021/06/24 09:31:55;;;;;;;4.57;1.00;;;;;;;17.35;60.24;102248.19;5041778;28;20049;-59
2021/06/24 09:34:25;;;;;;;3.95;1.20;;;;;;;17.42;60.14;102254.25;5039946;28;20060;-59
2021/06/24 09:36:54;;;;;;;2.78;1.17;;;;;;;17.49;59.92;102253.84;5029879;28;20198;-56
2021/06/24 09:39:29;;;;;;;4.85;0.93;;;;;;;17.51;59.15;102248.72;5044920;28;20055;-59
2021/06/24 09:41:59;;;;;;;3.10;1.00;;;;;;;17.54;59.23;102260.22;5043727;28;20041;-53
2021/06/24 09:44:27;;;;;;;1.80;0.70;;;;;;;17.58;59.70;102253.97;5045084;28;20042;-61
2021/06/24 09:46:55;;;;;;;3.30;0.75;;;;;;;17.58;59.81;102254.81;5042965;28;20049;-58
2021/06/24 09:49:32;;;;;;;3.25;0.70;;;;;;;17.58;59.42;102259.63;5045168;28;20045;-59
2021/06/24 09:52:03;;;;;;;3.30;0.70;;;;;;;17.58;59.95;102254.81;5039586;28;20045;-56
2021/06/24 09:54:36;;;;;;;2.25;0.68;;;;;;;17.60;60.19;102248.81;5044769;28;20489;-54
2021/06/24 09:57:05;;;;;;;2.25;0.60;;;;;;;17.58;59.78;102256.78;5040036;28;20047;-62
2021/06/24 09:59:39;;;;;;;3.25;0.70;;;;;;;17.55;59.85;102266.72;5025937;28;20616;-54
2021/06/24 10:02:12;;;;;;;2.15;0.65;;;;;;;17.48;59.72;102267.13;5038623;28;20040;-57
2021/06/24 10:04:44;;;;;;;2.00;0.70;;;;;;;17.44;60.10;102268.03;5039072;28;20675;-57
2021/06/24 10:07:13;;;;;;;2.23;0.80;;;;;;;17.42;60.57;102265.53;5051312;28;20417;-61
2021/06/24 10:09:43;;;;;;;3.03;0.88;;;;;;;17.44;60.36;102262.41;5039997;28;20077;-58
2021/06/24 10:12:12;;;;;;;2.63;0.77;;;;;;;17.44;60.73;102265.22;5038180;28;20441;-56
2021/06/24 10:14:45;;;;;;;4.05;0.80;;;;;;;17.48;60.20;102274.75;5041365;28;20049;-59
2021/06/24 10:17:13;;;;;;;1.95;0.70;;;;;;;17.59;60.76;102259.28;5037164;28;20091;-54
2021/06/24 10:19:44;;;;;;;2.30;0.95;;;;;;;17.68;60.04;102257.44;5042228;28;20049;-56
2021/06/24 10:22:15;;;;;;;3.17;0.70;;;;;;;17.69;59.96;102261.09;5036699;28;20057;-58
2021/06/24 10:24:46;;;;;;;3.05;0.60;;;;;;;17.66;59.63;102264.53;5030869;28;20397;-60
2021/06/24 10:27:16;;;;;;;1.73;0.63;;;;;;;17.60;59.45;102263.78;5045307;28;20102;-57
2021/06/24 10:29:48;;;;;;;1.70;0.55;;;;;;;17.58;59.31;102263.28;5038961;28;20049;-58
2021/06/24 10:32:31;;;;;;;2.92;0.70;;;;;;;17.57;59.18;102261.59;5045798;28;20144;-57
2021/06/24 10:35:02;;;;;;;2.67;0.65;;;;;;;17.66;59.59;102264.53;5038720;28;20036;-58
2021/06/24 10:37:32;;;;;;;4.07;0.90;;;;;;;17.83;59.73;102253.47;5027885;28;20099;-56
2021/06/24 10:40:02;;;;;;;3.70;0.77;;;;;;;17.94;58.88;102249.28;5038277;28;20322;-57
2021/06/24 10:42:32;;;;;;;2.50;0.60;;;;;;;17.96;58.33;102246.16;5045525;28;20327;-58
2021/06/24 10:45:03;;;;;;;1.88;0.50;;;;;;;17.94;58.61;102243.63;5038697;28;20383;-58
2021/06/24 10:47:37;;;;;;;1.92;0.70;;;;;;;18.07;58.12;102253.22;5045178;28;20045;-56
2021/06/24 10:50:44;;;;;;;2.13;0.60;;;;;;;18.24;57.43;102248.59;5051379;28;20484;-60
2021/06/24 10:53:47;;;;;;;1.98;0.80;;;;;;;18.27;57.32;102252.78;5045617;28;20052;-59
2021/06/24 10:56:48;;;;;;;2.13;0.60;;;;;;;18.25;56.93;102249.44;5031591;28;20399;-57
2021/06/24 10:59:33;;;;;;;1.98;0.63;;;;;;;18.28;56.93;102245.97;5039369;28;20041;-57
2021/06/24 11:02:12;;;;;;;2.75;0.60;;;;;;;18.30;56.96;102243.66;5035730;28;20049;-59
2021/06/24 11:04:43;;;;;;;2.72;0.60;;;;;;;18.33;57.23;102253.50;5021743;28;20057;-57
2021/06/24 11:07:37;;;;;;;1.77;0.80;;;;;;;18.40;56.30;102239.75;5035813;28;20041;-56
2021/06/24 11:10:32;;;;;;;5.03;0.93;;;;;;;18.47;56.25;102240.16;5029928;28;20048;-60
2021/06/24 11:13:02;;;;;;;2.50;0.70;;;;;;;18.60;57.47;102244.94;5010881;28;20124;-65
2021/06/24 11:15:50;;;;;;;3.03;0.98;;;;;;;18.67;55.88;102251.00;5033914;28;20124;-51
2021/06/24 11:18:51;;;;;;;2.17;0.70;;;;;;;18.59;55.77;102243.28;5025897;28;20430;-59
2021/06/24 11:21:23;;;;;;;1.67;0.50;;;;;;;18.46;56.56;102244.97;5042960;28;20373;-53
2021/06/24 11:23:54;;;;;;;;;;;;;;;18.35;55.59;102229.44;5035744;28;20042;-52
2021/06/24 11:26:31;;;;;;;2.85;0.70;;;;;;;18.52;56.30;102231.56;5043024;28;19929;-53
2021/06/24 11:29:01;;;;;;;2.65;0.63;;;;;;;18.73;56.93;102221.44;5016800;28;20175;-55
2021/06/24 11:31:40;;;;;;;2.45;0.80;;;;;;;18.97;55.65;102217.47;5042647;28;20052;-60
2021/06/24 11:34:15;;;;;;;2.47;0.77;;;;;;;19.06;55.53;102236.16;5035977;28;20049;-57
2021/06/24 11:36:48;;;;;;;2.33;0.70;;;;;;;19.19;55.50;102229.56;5042475;28;20059;-55
2021/06/24 11:39:25;;;;;;;3.47;0.73;;;;;;;19.39;54.87;102230.16;5035440;28;20065;-48
2021/06/24 11:41:54;;;;;;;2.95;0.60;;;;;;;19.56;54.93;102233.13;5042828;28;20041;-53
2021/06/24 11:44:26;;;;;;;2.30;0.70;;;;;;;19.65;54.11;102218.97;5034608;28;20449;-58
2021/06/24 11:46:55;;;;;;;;;;;;;;;19.55;52.73;102218.13;5043057;28;20436;-50
2021/06/24 12:04:00;;;;;;;2.85;0.52;;;;;;;19.61;53.41;102205.47;5035054;28;20047;-53